Time;durP1;ratioP1;P1;durP2;ratioP2;P2;SDS_P1;SDS_P2;PMS_P1;PMS_P2;Temp;Humidity;BMP_temperature;BMP_pressure;BME280_temperature;BME280_humidity;BME280_pressure;Samples;Min_cycle;Max_cycle;Signal;HPM_P1;HPM_P2
2023/06/25 05:48:32;;;;;;;;;7.33;7.33;;;;;21.65;54.01;101375.00;5481483;23;45976;-79
2023/06/25 05:50:57;;;;;;;;;8.00;8.00;;;;;21.52;54.07;101343.75;4942542;28;45763;-79
2023/06/25 05:53:24;;;;;;;;;7.00;6.33;;;;;21.54;53.75;101350.91;4940580;28;45414;-79
2023/06/25 05:55:50;;;;;;;;;7.00;7.00;;;;;21.54;53.49;101331.19;4941672;28;45294;-79
2023/06/25 05:58:15;;;;;;;;;7.00;7.00;;;;;21.66;53.99;101347.16;4937809;28;45397;-80
2023/06/25 06:00:41;;;;;;;;;7.00;7.00;;;;;21.71;53.07;101341.72;4943655;28;45697;-80
2023/06/25 06:03:06;;;;;;;;;7.00;7.00;;;;;21.84;53.96;101373.81;4945835;28;45421;-80
2023/06/25 06:05:31;;;;;;;;;6.00;6.00;;;;;21.72;54.20;101338.13;4946179;28;45528;-80
2023/06/25 06:07:57;;;;;;;;;6.00;6.00;;;;;21.92;54.03;101357.56;4947237;28;45806;-83
2023/06/25 06:10:22;;;;;;;;;6.00;4.67;;;;;21.61;54.25;101304.16;4945325;28;45542;-82
2023/06/25 06:12:47;;;;;;;;;9.00;7.33;;;;;22.01;53.70;101352.06;4936123;28;45344;-81
2023/06/25 06:15:13;;;;;;;;;9.00;7.00;;;;;22.12;53.54;101357.28;4944865;28;45214;-81
2023/06/25 06:17:38;;;;;;;;;9.00;9.00;;;;;22.15;53.11;101345.59;4945246;28;45158;-80
2023/06/25 06:20:05;;;;;;;;;7.00;6.33;;;;;22.22;52.01;101334.75;4948999;28;47116;-81
2023/06/25 06:22:30;;;;;;;;;7.33;7.33;;;;;22.47;52.91;101367.56;4945555;28;45452;-80
2023/06/25 06:24:55;;;;;;;;;8.33;7.33;;;;;22.36;52.56;101331.84;4944085;28;45287;-80
2023/06/25 06:27:21;;;;;;;;;7.33;7.33;;;;;22.61;51.92;101339.53;4944378;28;51496;-80
2023/06/25 06:29:46;;;;;;;;;6.33;6.33;;;;;22.53;53.50;101297.41;4942094;28;45505;-80
2023/06/25 06:32:11;;;;;;;;;10.67;8.00;;;;;22.42;52.82;101260.81;4948814;28;45250;-80
2023/06/25 06:34:36;;;;;;;;;9.33;8.00;;;;;23.09;52.20;101313.50;4945315;28;45540;-80
2023/06/25 06:37:02;;;;;;;;;8.67;7.00;;;;;23.61;52.19;101339.44;4951050;28;45451;-81
2023/06/25 06:39:28;;;;;;;;;9.33;8.00;;;;;23.94;50.45;101341.47;4940902;28;45518;-81
2023/06/25 06:41:53;;;;;;;;;10.00;10.00;;;;;24.17;49.74;101327.41;4948987;28;45464;-82
2023/06/25 06:44:19;;;;;;;;;9.00;9.00;;;;;24.55;49.07;101324.72;4942353;28;45497;-81
2023/06/25 06:46:45;;;;;;;;;8.67;8.33;;;;;24.88;48.53;101335.59;4957364;28;45530;-80
2023/06/25 06:49:11;;;;;;;;;7.67;7.67;;;;;25.25;47.98;101331.03;4937224;28;45932;-80
2023/06/25 06:51:38;;;;;;;;;9.00;6.00;;;;;25.41;48.00;101300.78;4947158;28;45313;-80
2023/06/25 06:54:04;;;;;;;;;8.50;7.75;;;;;25.78;46.29;101296.94;4939490;28;45289;-81
2023/06/25 06:56:30;;;;;;;;;10.25;8.00;;;;;26.23;46.81;101322.66;4941594;28;45533;-81
2023/06/25 06:58:56;;;;;;;;;9.00;8.75;;;;;26.40;46.47;101293.19;4936160;28;46630;-81
2023/06/25 07:01:21;;;;;;;;;11.25;8.00;;;;;26.66;44.66;101286.88;4947386;28;45477;-82
2023/06/25 07:03:46;;;;;;;;;9.00;7.50;;;;;27.16;44.18;101327.63;4937990;28;45577;-83
2023/06/25 07:06:12;;;;;;;;;10.25;6.50;;;;;27.46;43.97;101324.75;4942200;28;45516;-84
2023/06/25 07:08:37;;;;;;;;;9.50;9.25;;;;;27.72;42.51;101317.44;4933331;28;45796;-83
2023/06/25 07:11:02;;;;;;;;;9.75;8.75;;;;;28.04;41.69;101327.06;4950647;28;45274;-82
2023/06/25 07:13:29;;;;;;;;;10.25;9.00;;;;;28.28;42.71;101309.75;4938358;28;45554;-82
2023/06/25 07:15:54;;;;;;;;;10.00;9.25;;;;;28.62;39.32;101319.22;4952430;28;45451;-82
2023/06/25 07:18:20;;;;;;;;;12.25;11.00;;;;;28.95;39.97;101310.56;4940771;28;46601;-83
2023/06/25 07:20:45;;;;;;;;;12.00;12.00;;;;;29.25;41.37;101310.19;4953267;28;45496;-81
2023/06/25 07:23:10;;;;;;;;;14.50;13.00;;;;;29.55;37.02;101319.66;4939933;28;45554;-80
2023/06/25 07:25:36;;;;;;;;;8.25;7.25;;;;;29.75;38.35;101315.16;4952224;28;45446;-84
2023/06/25 07:28:01;;;;;;;;;10.25;9.00;;;;;30.08;37.87;101339.88;4944169;28;47971;-83
2023/06/25 07:30:27;;;;;;;;;8.75;8.75;;;;;30.28;38.76;101322.59;4954494;28;45544;-82
2023/06/25 07:32:52;;;;;;;;;8.75;8.00;;;;;30.45;36.77;101303.53;4948419;28;47268;-83
2023/06/25 07:35:17;;;;;;;;;8.25;8.25;;;;;30.72;36.04;101303.06;4954325;28;45539;-83
2023/06/25 07:37:43;;;;;;;;;9.75;9.75;;;;;30.97;36.42;101294.50;4949774;28;45479;-83
2023/06/25 07:40:08;;;;;;;;;9.25;9.00;;;;;31.13;35.17;101292.72;4945769;28;45289;-83
2023/06/25 07:42:34;;;;;;;;;9.00;9.00;;;;;31.28;33.72;101293.72;4953128;28;45332;-83
2023/06/25 07:44:59;;;;;;;;;9.50;9.00;;;;;31.63;33.74;101315.53;4948433;28;45394;-83
2023/06/25 07:47:25;;;;;;;;;10.25;9.75;;;;;31.81;34.79;101303.53;4957820;28;45565;-81
2023/06/25 07:49:50;;;;;;;;;12.00;9.25;;;;;31.98;33.34;101312.69;4954956;28;45400;-80
2023/06/25 07:52:16;;;;;;;;;7.00;7.00;;;;;32.05;34.75;101300.44;4955394;28;45498;-81
2023/06/25 07:54:41;;;;;;;;;12.50;10.50;;;;;32.25;33.46;101308.34;4941369;28;45981;-80
2023/06/25 07:57:07;;;;;;;;;9.75;8.00;;;;;32.36;32.73;101274.00;4946990;28;47272;-81
2023/06/25 07:59:32;;;;;;;;;9.25;8.50;;;;;32.72;34.86;101310.16;4944174;28;45440;-80
2023/06/25 08:01:58;;;;;;;;;8.50;8.50;;;;;32.73;31.75;101272.69;4945698;28;45584;-80
2023/06/25 08:04:23;;;;;;;;;9.50;7.75;;;;;33.06;31.37;101293.53;4947346;28;45787;-81
2023/06/25 08:06:49;;;;;;;;;9.50;9.25;;;;;33.23;31.84;101281.50;4960342;28;47333;-81
2023/06/25 08:09:14;;;;;;;;;9.50;8.00;;;;;33.09;30.05;101233.06;4940428;28;45272;-80
2023/06/25 08:11:40;;;;;;;;;8.00;8.00;;;;;33.72;32.65;101284.72;4957786;28;45396;-82
2023/06/25 08:14:06;;;;;;;;;9.75;8.50;;;;;34.08;29.56;101305.28;4944850;28;45457;-81
2023/06/25 08:16:31;;;;;;;;;9.75;9.50;;;;;34.15;28.42;101250.88;4951688;28;47013;-81
2023/06/25 08:18:56;;;;;;;;;8.25;8.25;;;;;34.61;30.00;101281.56;4947860;28;45527;-81
2023/06/25 08:21:22;;;;;;;;;8.25;8.25;;;;;34.89;30.12;101288.75;4953735;28;45504;-80
2023/06/25 08:23:48;;;;;;;;;4.00;4.00;;;;;34.78;27.97;101285.88;4948321;28;45583;-80
2023/06/25 08:26:15;;;;;;;;;14.50;10.50;;;;;34.96;28.75;101281.00;4941013;28;51337;-80
2023/06/25 08:28:42;;;;;;;;;9.20;8.80;;;;;35.06;27.71;101259.25;4953917;28;45394;-80
2023/06/25 08:31:07;;;;;;;;;8.20;8.20;;;;;35.41;27.96;101275.94;4950761;28;45535;-83
2023/06/25 08:33:33;;;;;;;;;9.00;7.50;;;;;35.64;28.51;101277.03;4948545;28;46430;-82
2023/06/25 08:35:59;;;;;;;;;9.60;8.60;;;;;35.79;26.78;101264.88;4954651;28;46113;-80
2023/06/25 08:38:25;;;;;;;;;9.00;9.00;;;;;35.99;27.76;101259.75;4953336;28;48705;-81
2023/06/25 08:40:52;;;;;;;;;9.00;7.40;;;;;36.17;27.75;101252.03;4951438;28;45423;-81
2023/06/25 08:43:18;;;;;;;;;9.40;8.00;;;;;36.44;28.55;101255.41;4948849;28;45436;-80
2023/06/25 08:45:44;;;;;;;;;9.50;9.50;;;;;36.63;27.35;101254.00;4940059;28;45186;-81
2023/06/25 08:48:13;;;;;;;;;9.25;9.25;;;;;36.84;27.73;101254.19;4950625;28;45405;-82
2023/06/25 08:50:41;;;;;;;;;10.20;10.20;;;;;36.85;28.20;101251.28;4943927;28;45451;-79
2023/06/25 08:53:07;;;;;;;;;8.20;7.20;;;;;36.74;24.09;101257.66;4928671;28;45527;-80
2023/06/25 08:55:34;;;;;;;;;9.60;9.60;;;;;36.92;25.68;101269.09;4944727;28;45757;-81
2023/06/25 08:58:00;;;;;;;;;9.40;8.60;;;;;37.07;24.77;101252.38;4935606;28;45461;-81
2023/06/25 09:00:25;;;;;;;;;10.50;9.00;;;;;37.36;26.18;101253.66;4941307;28;45224;-80
2023/06/25 09:02:50;;;;;;;;;11.50;11.50;;;;;37.44;26.08;101257.66;4951596;28;45210;-79
2023/06/25 09:05:24;;;;;;;;;9.00;9.00;;;;;37.29;25.60;101252.38;4946175;28;46397;-79
2023/06/25 09:07:49;;;;;;;;;10.20;9.80;;;;;37.54;24.63;101259.56;4944343;28;45389;-81
2023/06/25 09:10:16;;;;;;;;;11.50;11.50;;;;;37.35;22.35;101259.28;4943372;28;45298;-81
2023/06/25 09:12:45;;;;;;;;;11.60;11.20;;;;;37.37;23.75;101237.97;4921695;28;45500;-81
2023/06/25 09:15:10;;;;;;;;;10.20;8.20;;;;;37.52;24.85;101241.38;4945135;28;46126;-81
2023/06/25 09:17:36;;;;;;;;;9.50;9.50;;;;;37.63;24.65;101244.13;4947562;28;45323;-81
2023/06/25 09:20:06;;;;;;;;;11.00;9.00;;;;;37.87;25.20;101243.97;4946028;28;45350;-81
2023/06/25 09:22:32;;;;;;;;;9.00;9.00;;;;;38.12;24.19;101245.56;4947831;28;46635;-83
2023/06/25 09:24:59;;;;;;;;;9.25;9.25;;;;;38.35;23.38;101243.59;4938649;28;46118;-82
2023/06/25 09:27:24;;;;;;;;;11.60;10.00;;;;;38.61;24.80;101244.09;4946774;28;45459;-82
2023/06/25 09:29:49;;;;;;;;;9.00;8.25;;;;;38.81;23.14;101228.53;4944505;28;45200;-82
2023/06/25 09:32:17;;;;;;;;;10.75;10.75;;;;;38.98;23.82;101237.25;4949020;28;45297;-79
2023/06/25 09:34:45;;;;;;;;;9.20;9.20;;;;;39.06;24.21;101229.16;4944921;28;45482;-82
2023/06/25 09:37:11;;;;;;;;;8.40;8.40;;;;;39.05;21.89;101214.44;4951129;28;45301;-80
2023/06/25 09:39:36;;;;;;;;;11.00;8.75;;;;;39.15;21.52;101231.94;4947084;28;45378;-80
2023/06/25 09:42:02;;;;;;;;;7.25;7.25;;;;;39.21;21.36;101204.75;4956652;28;45171;-82
2023/06/25 09:44:28;;;;;;;;;7.25;7.25;;;;;39.54;22.84;101232.16;4936404;28;46299;-81
2023/06/25 09:47:03;;;;;;;;;10.80;9.40;;;;;39.55;22.40;101213.66;4950167;28;45332;-81
2023/06/25 09:49:31;;;;;;;;;8.80;8.00;;;;;39.81;20.97;101227.91;4937141;28;46379;-81
2023/06/25 09:52:15;;;;;;;;;11.40;9.40;;;;;39.77;22.91;101207.03;4953624;28;45472;-81
2023/06/25 09:54:42;;;;;;;;;9.40;9.40;;;;;40.11;21.70;101223.25;4942095;28;46361;-81
2023/06/25 09:57:14;;;;;;;;;10.00;10.00;;;;;40.23;21.99;101209.16;4947838;28;45353;-82
2023/06/25 09:59:40;;;;;;;;;9.00;7.40;;;;;40.30;19.46;101217.75;4944674;28;45513;-82
2023/06/25 10:02:07;;;;;;;;;11.25;8.50;;;;;40.55;21.57;101226.50;4947206;28;45478;-80
2023/06/25 10:04:34;;;;;;;;;9.40;9.00;;;;;40.69;21.35;101209.44;4949087;28;45579;-82
2023/06/25 10:07:01;;;;;;;;;7.20;6.60;;;;;40.96;21.86;101218.88;4950938;28;45424;-80
2023/06/25 10:09:26;;;;;;;;;9.00;9.00;;;;;40.83;19.58;101200.63;4935433;28;45437;-81
2023/06/25 10:11:54;;;;;;;;;9.00;7.75;;;;;41.00;20.01;101192.56;4948972;28;50462;-80
2023/06/25 10:14:21;;;;;;;;;9.20;9.20;;;;;41.23;21.11;101195.84;4942775;28;45488;-81
2023/06/25 10:16:57;;;;;;;;;7.20;7.00;;;;;41.33;20.61;101213.34;4957799;28;45308;-81
2023/06/25 10:19:24;;;;;;;;;12.00;8.00;;;;;41.44;20.92;101193.72;4948477;28;45512;-81
2023/06/25 10:22:12;;;;;;;;;8.80;8.80;;;;;41.69;20.16;101208.78;4948247;28;45792;-80
2023/06/25 10:24:41;;;;;;;;;7.00;7.00;;;;;41.57;20.45;101196.16;4943025;28;45544;-82
2023/06/25 10:27:21;;;;;;;;;9.60;7.40;;;;;41.53;19.94;101191.94;4955715;28;46078;-79
2023/06/25 10:29:46;;;;;;;;;11.40;9.60;;;;;41.55;19.17;101199.09;4942768;28;45453;-82
2023/06/25 10:32:12;;;;;;;;;9.00;9.00;;;;;41.73;19.92;101199.09;4955873;28;45293;-81
2023/06/25 10:34:37;;;;;;;;;9.00;8.25;;;;;41.84;19.65;101200.78;4943659;28;45635;-80
2023/06/25 10:37:07;;;;;;;;;11.25;9.50;;;;;42.10;19.06;101206.50;4956491;28;45426;-82
2023/06/25 10:39:41;;;;;;;;;9.80;8.20;;;;;42.19;20.31;101186.06;4949254;28;45464;-81
2023/06/25 10:42:07;;;;;;;;;8.00;8.00;;;;;42.29;19.70;101177.63;4956735;28;45432;-80
2023/06/25 10:44:33;;;;;;;;;8.80;8.80;;;;;42.24;18.51;101197.59;4948845;28;47146;-76
2023/06/25 10:47:07;;;;;;;;;8.60;8.40;;;;;42.12;19.58;101154.41;4950405;28;45452;-76
2023/06/25 10:49:33;;;;;;;;;8.20;7.60;;;;;42.48;19.85;101168.28;4936514;28;45424;-77
2023/06/25 10:51:59;;;;;;;;;8.40;7.20;;;;;42.68;18.13;101191.19;4953156;28;45519;-73
2023/06/25 10:54:24;;;;;;;;;9.75;9.50;;;;;42.70;19.45;101181.63;4935418;28;46315;-80
2023/06/25 10:56:53;;;;;;;;;9.25;9.25;;;;;42.54;18.94;101166.75;4939328;28;45310;-80
2023/06/25 10:59:22;;;;;;;;;10.20;10.00;;;;;42.53;16.96;101165.00;4937998;28;45420;-78
2023/06/25 11:01:49;;;;;;;;;9.80;9.80;;;;;42.69;19.12;101182.69;4948575;28;45476;-80
2023/06/25 11:04:14;;;;;;;;;10.00;8.40;;;;;42.75;18.19;101183.97;4932721;28;46897;-79
2023/06/25 11:06:40;;;;;;;;;9.00;9.00;;;;;42.71;17.10;101176.94;4934738;28;45434;-80
2023/06/25 11:09:05;;;;;;;;;9.50;8.25;;;;;42.81;18.24;101176.88;4941762;28;45243;-76
2023/06/25 11:11:31;;;;;;;;;7.00;7.00;;;;;42.84;16.83;101171.00;4952173;28;45520;-77
2023/06/25 11:13:56;;;;;;;;;8.00;8.00;;;;;42.88;17.61;101175.16;4948481;28;45241;-76
2023/06/25 11:16:22;;;;;;;;;11.00;9.25;;;;;42.20;17.27;101168.34;4953306;28;45348;-75
2023/06/25 11:18:50;;;;;;;;;17.50;17.50;;;;;42.13;17.89;101135.84;4948525;28;45316;-77
2023/06/25 11:21:16;;;;;;;;;59.00;48.67;;;;;42.45;18.31;101149.16;4954961;28;45494;-76
2023/06/25 11:23:43;;;;;;;;;14.00;11.00;;;;;42.54;18.43;101138.94;4946263;28;45332;-75
2023/06/25 11:26:12;;;;;;;;;8.20;8.20;;;;;42.72;17.01;101152.81;4941055;28;45340;-79
2023/06/25 11:28:38;;;;;;;;;11.60;10.00;;;;;42.83;17.16;101147.00;4948243;28;45318;-76
2023/06/25 11:31:04;;;;;;;;;9.80;9.20;;;;;43.05;18.25;101157.56;4949768;28;46312;-77
2023/06/25 11:33:30;;;;;;;;;7.75;7.75;;;;;43.12;18.20;101147.47;4948242;28;45558;-78
2023/06/25 11:36:07;;;;;;;;;9.20;9.20;;;;;43.09;17.83;101142.25;4951720;28;45333;-80
2023/06/25 11:38:32;;;;;;;;;16.20;14.60;;;;;43.20;17.51;101154.16;4951578;28;45374;-77
2023/06/25 11:40:58;;;;;;;;;10.50;9.75;;;;;43.02;18.16;101135.59;4947782;28;45428;-78
2023/06/25 11:43:26;;;;;;;;;12.00;11.40;;;;;42.97;17.41;101145.47;4939920;28;47430;-80
2023/06/25 11:45:52;;;;;;;;;8.40;8.00;;;;;42.91;17.44;101133.09;4948065;28;45800;-77
2023/06/25 11:48:21;;;;;;;;;10.20;8.00;;;;;42.97;17.80;101124.13;4946398;28;45606;-79
2023/06/25 11:50:51;;;;;;;;;11.00;11.00;;;;;43.17;17.09;101138.69;4959619;28;44920;-77
2023/06/25 11:53:17;;;;;;;;;9.80;9.20;;;;;43.22;17.63;101125.13;4952385;28;45615;-78
2023/06/25 11:55:43;;;;;;;;;9.00;9.00;;;;;43.40;16.75;101133.34;4951364;28;45350;-78
2023/06/25 11:58:09;;;;;;;;;18.50;16.00;;;;;43.51;16.65;101129.38;4937776;28;45537;-81
2023/06/25 12:00:35;;;;;;;;;9.40;9.40;;;;;43.34;17.53;101107.06;4948066;28;45416;-77
2023/06/25 12:03:02;;;;;;;;;13.00;11.75;;;;;43.60;17.27;101144.22;4948326;28;46909;-77
2023/06/25 12:05:29;;;;;;;;;24.60;23.00;;;;;43.22;17.92;101085.28;4948825;28;45306;-76
2023/06/25 12:07:54;;;;;;;;;10.20;9.40;;;;;43.56;18.03;101122.31;4950438;28;45264;-76
2023/06/25 12:10:21;;;;;;;;;16.75;16.00;;;;;43.36;16.87;101120.84;4952176;28;45315;-77
2023/06/25 12:12:47;;;;;;;;;7.20;7.20;;;;;43.37;17.26;101114.22;4952351;28;46436;-77
2023/06/25 12:15:20;;;;;;;;;8.00;8.00;;;;;43.39;16.28;101139.97;4946418;28;45456;-80
2023/06/25 12:17:45;;;;;;;;;11.20;10.40;;;;;43.26;16.92;101128.44;4953157;28;45578;-78
2023/06/25 12:20:20;;;;;;;;;8.00;8.00;;;;;43.08;17.20;101101.56;4953011;28;47393;-78
2023/06/25 12:22:47;;;;;;;;;9.40;9.40;;;;;42.96;16.86;101091.75;4953043;28;46247;-79
2023/06/25 12:25:13;;;;;;;;;10.20;10.20;;;;;43.03;16.99;101100.34;4947639;28;45166;-76
2023/06/25 12:27:39;;;;;;;;;13.25;12.25;;;;;42.83;16.69;101102.50;4954879;28;45362;-79
2023/06/25 12:30:06;;;;;;;;;10.25;9.00;;;;;43.02;17.63;101106.91;4950363;28;45491;-78
2023/06/25 12:32:31;;;;;;;;;17.60;16.00;;;;;43.22;17.33;101107.53;4952913;28;48180;-76
2023/06/25 12:35:03;;;;;;;;;17.75;16.50;;;;;43.46;17.30;101110.41;4938157;28;45445;-77
2023/06/25 12:37:29;;;;;;;;;8.80;8.80;;;;;43.08;17.19;101079.31;4955135;28;45325;-77
2023/06/25 12:39:54;;;;;;;;;42.75;36.00;;;;;43.39;17.08;101095.44;4945042;28;58729;-78
2023/06/25 12:42:20;;;;;;;;;7.75;7.75;;;;;43.53;17.43;101130.97;4951021;28;45476;-76
2023/06/25 12:44:49;;;;;;;;;14.25;14.25;;;;;43.39;16.94;101103.78;4930986;28;45678;-77
2023/06/25 12:47:15;;;;;;;;;8.60;8.60;;;;;43.52;17.02;101123.63;4964400;28;45230;-76
2023/06/25 12:49:40;;;;;;;;;12.00;12.00;;;;;43.54;17.51;101095.63;4936790;28;45467;-78
2023/06/25 12:52:06;;;;;;;;;13.75;13.75;;;;;43.64;16.16;101115.88;4976589;28;47120;-77
2023/06/25 12:54:38;;;;;;;;;10.25;9.50;;;;;43.68;17.39;101106.13;4950556;28;45425;-83
2023/06/25 12:57:06;;;;;;;;;9.40;9.00;;;;;43.71;16.23;101107.69;4945026;28;45429;-78
2023/06/25 12:59:32;;;;;;;;;9.80;9.20;;;;;43.77;17.01;101099.50;4949884;28;45311;-83
2023/06/25 13:01:58;;;;;;;;;11.25;10.75;;;;;43.75;16.05;101097.94;4962950;28;46649;-81
2023/06/25 13:04:25;;;;;;;;;8.00;8.00;;;;;43.81;17.27;101094.50;4945673;28;45421;-78
2023/06/25 13:06:50;;;;;;;;;11.80;9.80;;;;;43.75;16.11;101079.34;4962658;28;45310;-81
2023/06/25 13:09:16;;;;;;;;;6.25;6.00;;;;;43.59;16.32;101076.53;4943718;28;46616;-79
2023/06/25 13:11:41;;;;;;;;;9.50;8.75;;;;;43.89;17.80;101100.06;4958208;28;47166;-82
2023/06/25 13:14:06;;;;;;;;;14.75;12.00;;;;;43.92;17.04;101085.78;4950999;28;45465;-79
2023/06/25 13:16:32;;;;;;;;;9.75;9.00;;;;;43.78;16.73;101086.47;4954740;28;45334;-82
2023/06/25 13:18:59;;;;;;;;;8.20;8.00;;;;;43.65;15.92;101080.53;4953273;28;44896;-82
2023/06/25 13:21:24;;;;;;;;;11.00;10.00;;;;;43.78;16.58;101097.63;4936342;28;46301;-81
2023/06/25 13:23:50;;;;;;;;;9.50;7.75;;;;;43.57;15.92;101045.19;4949094;28;45281;-80
2023/06/25 13:26:15;;;;;;;;;10.25;8.25;;;;;43.84;17.12;101076.56;4944139;28;45506;-81
2023/06/25 13:28:41;;;;;;;;;9.00;7.75;;;;;43.86;17.31;101080.03;4950132;28;45443;-82
2023/06/25 13:31:06;;;;;;;;;7.25;6.50;;;;;43.83;16.69;101074.81;4941575;28;45407;-82
2023/06/25 13:33:31;;;;;;;;;10.00;9.25;;;;;43.65;16.55;101039.66;4938796;28;45403;-80
2023/06/25 13:35:57;;;;;;;;;11.00;9.25;;;;;43.76;16.97;101069.06;4966387;28;45671;-81
2023/06/25 13:38:23;;;;;;;;;12.00;10.75;;;;;43.79;16.34;101083.50;4947979;28;45257;-80
2023/06/25 13:40:48;;;;;;;;;8.00;8.00;;;;;43.79;16.27;101077.06;4948226;28;45516;-80
2023/06/25 13:43:15;;;;;;;;;9.00;9.00;;;;;43.76;16.21;101069.94;4944778;28;45338;-83
2023/06/25 13:45:41;;;;;;;;;8.20;8.20;;;;;43.78;16.54;101044.72;4970168;28;45376;-81
2023/06/25 13:48:24;;;;;;;;;7.00;7.00;;;;;43.75;16.06;101062.63;4948535;28;45581;-80
2023/06/25 13:50:49;;;;;;;;;9.80;9.60;;;;;43.57;16.58;101048.84;4948158;28;45006;-79
2023/06/25 13:53:16;;;;;;;;;6.25;6.25;;;;;43.37;16.78;101033.50;4936038;28;57121;-81
2023/06/25 13:56:01;;;;;;;;;5.80;4.40;;;;;43.38;17.00;101029.66;4934986;28;45357;-83
2023/06/25 13:58:28;;;;;;;;;8.00;8.00;;;;;43.45;16.34;101047.44;4933594;28;45550;-81
2023/06/25 14:00:58;;;;;;;;;10.20;9.00;;;;;43.37;16.48;101052.97;4935828;28;45606;-82
2023/06/25 14:03:24;;;;;;;;;8.00;8.00;;;;;43.12;16.98;101013.91;4943913;28;45313;-83
2023/06/25 14:05:50;;;;;;;;;12.25;8.50;;;;;43.31;16.81;101062.00;4923657;28;45342;-83
2023/06/25 14:08:17;;;;;;;;;10.40;9.20;;;;;43.19;16.57;101050.34;4921733;28;46718;-81
2023/06/25 14:10:42;;;;;;;;;6.80;6.80;;;;;43.23;17.23;101064.78;4944517;28;46701;-82
2023/06/25 14:13:10;;;;;;;;;8.75;8.75;;;;;43.07;16.81;101021.91;4920867;28;45376;-83
2023/06/25 14:15:37;;;;;;;;;7.40;7.40;;;;;43.24;16.01;101047.88;4926481;28;45434;-83
2023/06/25 14:18:10;;;;;;;;;8.80;8.80;;;;;43.21;15.85;101041.81;4935121;28;45623;-82
2023/06/25 14:21:01;;;;;;;;;10.20;9.20;;;;;43.20;16.16;101059.56;4931398;28;45050;-80
2023/06/25 14:23:38;;;;;;;;;8.20;8.00;;;;;42.79;15.94;101012.09;4938214;28;44732;-82
2023/06/25 14:26:08;;;;;;;;;7.40;7.40;;;;;43.02;16.39;101048.50;4935794;28;45265;-83
2023/06/25 14:28:33;;;;;;;;;9.40;8.60;;;;;42.92;16.16;101041.16;4917361;28;45702;-82
2023/06/25 14:30:59;;;;;;;;;10.25;9.00;;;;;42.96;16.73;101041.69;4926779;28;46530;-83
2023/06/25 14:33:28;;;;;;;;;10.50;10.50;;;;;42.85;16.60;101045.66;4920708;28;45601;-82
2023/06/25 14:35:54;;;;;;;;;10.20;9.00;;;;;42.72;15.23;101013.78;4920568;28;45462;-78
2023/06/25 14:38:20;;;;;;;;;8.60;7.80;;;;;42.87;16.12;101037.16;4918396;28;44767;-81
2023/06/25 14:40:45;;;;;;;;;11.00;9.75;;;;;42.92;16.17;101027.25;4925334;28;45226;-79
2023/06/25 14:43:11;;;;;;;;;9.25;8.25;;;;;42.78;15.71;101036.25;4923374;28;48651;-80
2023/06/25 14:45:36;;;;;;;;;9.00;9.00;;;;;42.60;16.55;101024.31;4930046;28;45293;-83
2023/06/25 14:48:01;;;;;;;;;10.25;10.25;;;;;42.66;16.37;101034.78;4915409;28;45575;-82
2023/06/25 14:50:27;;;;;;;;;10.00;9.50;;;;;42.52;16.12;101011.25;4943504;28;45369;-81
2023/06/25 14:52:52;;;;;;;;;11.00;10.25;;;;;42.36;16.56;101002.81;4947972;28;45628;-81
2023/06/25 14:55:17;;;;;;;;;10.00;10.00;;;;;42.22;16.04;101023.72;4941452;28;45329;-81
2023/06/25 14:57:43;;;;;;;;;9.00;8.50;;;;;42.20;15.93;101023.00;4942333;28;46957;-82
2023/06/25 15:00:09;;;;;;;;;8.00;8.00;;;;;42.14;16.11;101023.66;4942522;28;46118;-82
2023/06/25 15:02:34;;;;;;;;;7.00;7.00;;;;;41.99;16.56;101003.97;4937198;28;45374;-78
2023/06/25 15:05:00;;;;;;;;;9.25;9.25;;;;;42.03;16.61;101014.56;4943951;28;45551;-81
2023/06/25 15:07:25;;;;;;;;;12.00;10.00;;;;;42.01;16.44;101024.97;4944441;28;45624;-79
2023/06/25 15:09:50;;;;;;;;;14.75;14.00;;;;;41.81;16.74;101009.50;4935591;28;47350;-82
2023/06/25 15:12:16;;;;;;;;;11.25;9.25;;;;;41.83;16.22;101024.09;4954614;28;45268;-79
2023/06/25 15:14:41;;;;;;;;;11.25;10.50;;;;;41.66;16.34;101006.44;4945769;28;45253;-81
2023/06/25 15:17:06;;;;;;;;;10.25;9.75;;;;;41.65;17.06;100996.38;4954687;28;46627;-80
2023/06/25 15:19:32;;;;;;;;;10.00;10.00;;;;;41.62;16.62;100987.47;4936215;28;48377;-81
2023/06/25 15:21:58;;;;;;;;;10.80;10.80;;;;;41.45;16.66;100961.44;4955438;28;45344;-83
2023/06/25 15:24:23;;;;;;;;;9.50;9.50;;;;;41.60;17.03;100982.09;4942486;28;45302;-84
2023/06/25 15:26:48;;;;;;;;;10.00;10.00;;;;;41.56;16.96;100989.00;4953414;28;45546;-80
2023/06/25 15:29:14;;;;;;;;;10.25;9.75;;;;;41.57;16.42;100990.75;4940431;28;54437;-81
2023/06/25 15:31:39;;;;;;;;;9.50;9.50;;;;;41.50;16.80;100993.28;4955269;28;45405;-84
2023/06/25 15:34:05;;;;;;;;;11.50;11.00;;;;;41.33;16.08;100980.25;4936370;28;45440;-81
2023/06/25 15:36:30;;;;;;;;;9.25;9.25;;;;;41.06;16.95;100954.34;4954374;28;55209;-81
2023/06/25 15:38:56;;;;;;;;;7.75;7.75;;;;;40.91;16.76;100970.59;4939656;28;45420;-81
2023/06/25 15:41:21;;;;;;;;;8.50;8.00;;;;;40.90;16.67;100976.31;4953111;28;45270;-80
2023/06/25 15:43:46;;;;;;;;;9.00;9.00;;;;;40.74;16.97;100957.59;4941613;28;45690;-82
2023/06/25 15:46:12;;;;;;;;;10.50;10.50;;;;;40.86;17.03;100978.50;4943592;28;52125;-84
2023/06/25 15:48:37;;;;;;;;;9.75;9.75;;;;;40.74;17.10;100965.91;4939994;28;45508;-81
2023/06/25 15:51:03;;;;;;;;;8.00;8.00;;;;;40.64;16.91;100982.59;4949061;28;45295;-84
2023/06/25 15:53:28;;;;;;;;;8.50;8.50;;;;;40.43;17.26;100968.94;4941998;28;45428;-81
2023/06/25 15:55:53;;;;;;;;;10.00;10.00;;;;;40.42;17.22;100969.13;4924694;28;47358;-82
2023/06/25 15:58:19;;;;;;;;;5.25;5.25;;;;;40.31;17.18;100939.72;4928346;28;46858;-83
2023/06/25 16:00:46;;;;;;;;;9.25;9.25;;;;;40.26;17.55;100944.84;4936279;28;47945;-82
2023/06/25 16:03:12;;;;;;;;;10.80;10.20;;;;;39.96;17.65;100930.19;4940551;28;45432;-84
2023/06/25 16:05:37;;;;;;;;;11.00;9.50;;;;;40.00;17.63;100959.31;4945419;28;45531;-84
2023/06/25 16:08:02;;;;;;;;;11.25;10.50;;;;;39.79;17.38;100950.34;4944174;28;46899;-83
2023/06/25 16:10:28;;;;;;;;;9.75;9.75;;;;;39.53;18.16;100917.72;4949394;28;45465;-85
2023/06/25 16:12:54;;;;;;;;;10.00;10.00;;;;;39.47;17.92;100926.63;4945164;28;45298;-81
2023/06/25 16:15:19;;;;;;;;;10.75;9.75;;;;;39.44;18.22;100934.31;4950029;28;45337;-82
2023/06/25 16:17:44;;;;;;;;;8.50;8.50;;;;;39.35;17.90;100941.63;4951021;28;53900;-81
2023/06/25 16:20:10;;;;;;;;;19.00;18.00;;;;;39.34;18.61;100931.56;4946912;28;45299;-82
2023/06/25 16:22:35;;;;;;;;;16.25;12.75;;;;;39.35;18.61;100947.16;4954065;28;45425;-81
2023/06/25 16:25:00;;;;;;;;;11.00;11.00;;;;;39.26;18.42;100951.63;4950381;28;49763;-83
2023/06/25 16:27:28;;;;;;;;;11.75;11.00;;;;;39.02;18.52;100924.41;4952154;28;45302;-84
2023/06/25 16:29:54;;;;;;;;;9.40;9.40;;;;;38.89;18.98;100907.25;4943925;28;45386;-81
2023/06/25 16:32:19;;;;;;;;;10.00;8.75;;;;;38.88;18.38;100922.09;4941159;28;45310;-82
2023/06/25 16:34:44;;;;;;;;;10.50;10.50;;;;;38.71;18.88;100931.91;4939634;28;45524;-81
2023/06/25 16:37:10;;;;;;;;;8.50;8.50;;;;;38.65;19.15;100932.47;4955330;28;45273;-80
2023/06/25 16:39:37;;;;;;;;;8.50;8.25;;;;;38.43;18.97;100908.72;4941602;28;45743;-83
2023/06/25 16:42:03;;;;;;;;;10.20;9.60;;;;;38.46;19.33;100933.31;4953827;28;45365;-81
2023/06/25 16:44:28;;;;;;;;;9.25;9.25;;;;;38.23;19.22;100914.16;4939685;28;45491;-83
2023/06/25 16:46:53;;;;;;;;;11.25;10.75;;;;;38.08;19.53;100910.00;4954233;28;49567;-84
2023/06/25 16:49:19;;;;;;;;;10.75;10.50;;;;;37.94;20.02;100902.91;4939970;28;45434;-84
2023/06/25 16:51:44;;;;;;;;;10.25;7.75;;;;;37.77;20.02;100890.63;4955099;28;46208;-83
2023/06/25 16:54:10;;;;;;;;;9.75;9.75;;;;;37.70;19.88;100897.72;4940597;28;49652;-82
2023/06/25 16:56:36;;;;;;;;;10.00;10.00;;;;;37.50;20.20;100901.34;4943927;28;45273;-82
2023/06/25 16:59:01;;;;;;;;;9.75;9.25;;;;;37.24;20.37;100889.81;4933231;28;45324;-81
2023/06/25 17:01:27;;;;;;;;;9.00;8.00;;;;;36.89;20.66;100858.75;4950319;28;45465;-81
2023/06/25 17:03:52;;;;;;;;;9.75;9.50;;;;;37.02;20.62;100897.16;4937736;28;45382;-76